sensor_id;sensor_type;location;lat;lon;timestamp;P1;durP1;ratioP1;P2;durP2;ratioP2
20251;SDS011;10284;58.364;15.550;2022-08-18T00:01:19;15.52;;;13.05;;
20251;SDS011;10284;58.364;15.550;2022-08-18T00:03:46;14.52;;;12.80;;
20251;SDS011;10284;58.364;15.550;2022-08-18T00:06:12;14.18;;;12.68;;
20251;SDS011;10284;58.364;15.550;2022-08-18T00:08:38;14.30;;;12.80;;
20251;SDS011;10284;58.364;15.550;2022-08-18T00:11:04;14.65;;;13.15;;
20251;SDS011;10284;58.364;15.550;2022-08-18T00:13:30;15.25;;;12.65;;
20251;SDS011;10284;58.364;15.550;2022-08-18T00:15:55;14.23;;;12.73;;
20251;SDS011;10284;58.364;15.550;2022-08-18T00:18:21;13.90;;;12.48;;
20251;SDS011;10284;58.364;15.550;2022-08-18T00:20:46;14.98;;;12.70;;
20251;SDS011;10284;58.364;15.550;2022-08-18T00:23:12;13.85;;;12.45;;
20251;SDS011;10284;58.364;15.550;2022-08-18T00:25:38;19.95;;;12.40;;
20251;SDS011;10284;58.364;15.550;2022-08-18T00:28:04;15.25;;;13.18;;
20251;SDS011;10284;58.364;15.550;2022-08-18T00:30:30;14.27;;;12.77;;
20251;SDS011;10284;58.364;15.550;2022-08-18T00:32:56;14.20;;;12.70;;
20251;SDS011;10284;58.364;15.550;2022-08-18T00:37:51;15.73;;;12.75;;
20251;SDS011;10284;58.364;15.550;2022-08-18T00:40:18;16.95;;;12.93;;
20251;SDS011;10284;58.364;15.550;2022-08-18T00:42:49;13.50;;;12.00;;
20251;SDS011;10284;58.364;15.550;2022-08-18T00:45:21;17.73;;;14.80;;
20251;SDS011;10284;58.364;15.550;2022-08-18T00:47:49;18.83;;;15.20;;
20251;SDS011;10284;58.364;15.550;2022-08-18T00:50:17;15.18;;;13.48;;
20251;SDS011;10284;58.364;15.550;2022-08-18T00:52:50;17.30;;;13.80;;
20251;SDS011;10284;58.364;15.550;2022-08-18T00:55:18;15.05;;;12.98;;
20251;SDS011;10284;58.364;15.550;2022-08-18T00:57:45;14.75;;;13.13;;
20251;SDS011;10284;58.364;15.550;2022-08-18T01:00:12;14.98;;;13.13;;
20251;SDS011;10284;58.364;15.550;2022-08-18T01:02:41;16.77;;;13.40;;
20251;SDS011;10284;58.364;15.550;2022-08-18T01:07:48;16.10;;;13.35;;
20251;SDS011;10284;58.364;15.550;2022-08-18T01:10:16;14.40;;;12.98;;
20251;SDS011;10284;58.364;15.550;2022-08-18T01:12:46;14.90;;;13.27;;
20251;SDS011;10284;58.364;15.550;2022-08-18T01:15:14;16.70;;;13.25;;
20251;SDS011;10284;58.364;15.550;2022-08-18T01:17:41;15.95;;;14.02;;
20251;SDS011;10284;58.364;15.550;2022-08-18T01:20:27;17.55;;;14.02;;
20251;SDS011;10284;58.364;15.550;2022-08-18T01:23:16;15.80;;;14.10;;
20251;SDS011;10284;58.364;15.550;2022-08-18T01:25:43;15.23;;;13.55;;
20251;SDS011;10284;58.364;15.550;2022-08-18T01:28:26;16.58;;;14.15;;
20251;SDS011;10284;58.364;15.550;2022-08-18T01:30:54;16.23;;;13.45;;
20251;SDS011;10284;58.364;15.550;2022-08-18T01:33:26;17.73;;;14.98;;
20251;SDS011;10284;58.364;15.550;2022-08-18T01:35:57;16.95;;;14.48;;
20251;SDS011;10284;58.364;15.550;2022-08-18T01:38:24;19.08;;;14.18;;
20251;SDS011;10284;58.364;15.550;2022-08-18T01:40:50;18.42;;;14.25;;
20251;SDS011;10284;58.364;15.550;2022-08-18T01:43:16;16.75;;;14.57;;
20251;SDS011;10284;58.364;15.550;2022-08-18T01:45:42;16.05;;;13.80;;
20251;SDS011;10284;58.364;15.550;2022-08-18T01:48:08;18.02;;;14.45;;
20251;SDS011;10284;58.364;15.550;2022-08-18T01:50:34;17.98;;;14.82;;
20251;SDS011;10284;58.364;15.550;2022-08-18T01:53:02;15.98;;;13.55;;
20251;SDS011;10284;58.364;15.550;2022-08-18T01:55:34;16.80;;;13.48;;
20251;SDS011;10284;58.364;15.550;2022-08-18T01:58:00;15.73;;;14.05;;
20251;SDS011;10284;58.364;15.550;2022-08-18T02:00:26;19.17;;;15.35;;
20251;SDS011;10284;58.364;15.550;2022-08-18T02:02:52;16.35;;;13.80;;
20251;SDS011;10284;58.364;15.550;2022-08-18T02:05:19;15.15;;;13.43;;
20251;SDS011;10284;58.364;15.550;2022-08-18T02:07:47;14.00;;;12.60;;
20251;SDS011;10284;58.364;15.550;2022-08-18T02:10:13;15.27;;;13.10;;
20251;SDS011;10284;58.364;15.550;2022-08-18T02:12:39;15.13;;;12.38;;
20251;SDS011;10284;58.364;15.550;2022-08-18T02:15:05;15.40;;;12.38;;
20251;SDS011;10284;58.364;15.550;2022-08-18T02:17:38;16.33;;;12.70;;
20251;SDS011;10284;58.364;15.550;2022-08-18T02:20:05;16.85;;;13.30;;
20251;SDS011;10284;58.364;15.550;2022-08-18T02:22:32;16.75;;;13.75;;
20251;SDS011;10284;58.364;15.550;2022-08-18T02:24:58;15.45;;;13.82;;
20251;SDS011;10284;58.364;15.550;2022-08-18T02:27:25;16.13;;;13.27;;
20251;SDS011;10284;58.364;15.550;2022-08-18T02:29:51;14.65;;;13.00;;
20251;SDS011;10284;58.364;15.550;2022-08-18T02:32:17;17.05;;;13.98;;
20251;SDS011;10284;58.364;15.550;2022-08-18T02:34:42;15.70;;;13.60;;
20251;SDS011;10284;58.364;15.550;2022-08-18T02:37:07;17.17;;;13.07;;
20251;SDS011;10284;58.364;15.550;2022-08-18T02:39:35;14.93;;;13.38;;
20251;SDS011;10284;58.364;15.550;2022-08-18T02:42:02;14.55;;;12.52;;
20251;SDS011;10284;58.364;15.550;2022-08-18T02:44:29;13.98;;;12.50;;
20251;SDS011;10284;58.364;15.550;2022-08-18T02:46:55;15.88;;;13.43;;
20251;SDS011;10284;58.364;15.550;2022-08-18T02:49:21;15.50;;;12.50;;
20251;SDS011;10284;58.364;15.550;2022-08-18T02:51:47;16.60;;;12.45;;
20251;SDS011;10284;58.364;15.550;2022-08-18T02:54:13;16.27;;;12.30;;
20251;SDS011;10284;58.364;15.550;2022-08-18T02:56:39;18.02;;;13.15;;
20251;SDS011;10284;58.364;15.550;2022-08-18T02:59:06;15.20;;;11.43;;
20251;SDS011;10284;58.364;15.550;2022-08-18T03:01:35;16.83;;;12.65;;
20251;SDS011;10284;58.364;15.550;2022-08-18T03:04:02;15.85;;;12.05;;
20251;SDS011;10284;58.364;15.550;2022-08-18T03:06:30;14.68;;;13.07;;
20251;SDS011;10284;58.364;15.550;2022-08-18T03:08:56;13.68;;;12.27;;
20251;SDS011;10284;58.364;15.550;2022-08-18T03:11:25;17.02;;;12.55;;
20251;SDS011;10284;58.364;15.550;2022-08-18T03:13:52;14.20;;;12.15;;
20251;SDS011;10284;58.364;15.550;2022-08-18T03:16:18;15.35;;;12.88;;
20251;SDS011;10284;58.364;15.550;2022-08-18T03:18:45;14.05;;;12.55;;
20251;SDS011;10284;58.364;15.550;2022-08-18T03:21:12;14.00;;;12.55;;
20251;SDS011;10284;58.364;15.550;2022-08-18T03:23:39;13.77;;;12.30;;
20251;SDS011;10284;58.364;15.550;2022-08-18T03:26:06;13.32;;;11.73;;
20251;SDS011;10284;58.364;15.550;2022-08-18T03:28:38;14.80;;;12.13;;
20251;SDS011;10284;58.364;15.550;2022-08-18T03:31:05;13.80;;;11.68;;
20251;SDS011;10284;58.364;15.550;2022-08-18T03:33:31;13.73;;;12.23;;
20251;SDS011;10284;58.364;15.550;2022-08-18T03:36:02;15.15;;;12.80;;
20251;SDS011;10284;58.364;15.550;2022-08-18T03:38:29;14.40;;;12.52;;
20251;SDS011;10284;58.364;15.550;2022-08-18T03:40:54;15.35;;;12.70;;
20251;SDS011;10284;58.364;15.550;2022-08-18T03:43:20;15.98;;;13.38;;
20251;SDS011;10284;58.364;15.550;2022-08-18T03:45:46;21.02;;;12.25;;
20251;SDS011;10284;58.364;15.550;2022-08-18T03:48:11;15.43;;;12.43;;
20251;SDS011;10284;58.364;15.550;2022-08-18T03:50:36;19.60;;;12.77;;
20251;SDS011;10284;58.364;15.550;2022-08-18T03:53:02;13.48;;;11.98;;
20251;SDS011;10284;58.364;15.550;2022-08-18T03:55:29;14.93;;;12.55;;
20251;SDS011;10284;58.364;15.550;2022-08-18T03:57:59;13.15;;;11.85;;
20251;SDS011;10284;58.364;15.550;2022-08-18T04:00:27;18.23;;;12.70;;
20251;SDS011;10284;58.364;15.550;2022-08-18T04:02:54;17.15;;;12.82;;
20251;SDS011;10284;58.364;15.550;2022-08-18T04:05:20;15.68;;;13.65;;
20251;SDS011;10284;58.364;15.550;2022-08-18T04:07:45;21.60;;;13.43;;
20251;SDS011;10284;58.364;15.550;2022-08-18T04:10:11;18.33;;;13.50;;
20251;SDS011;10284;58.364;15.550;2022-08-18T04:12:36;15.50;;;13.30;;
20251;SDS011;10284;58.364;15.550;2022-08-18T04:15:02;14.07;;;12.68;;
20251;SDS011;10284;58.364;15.550;2022-08-18T04:17:29;15.68;;;13.30;;
20251;SDS011;10284;58.364;15.550;2022-08-18T04:19:54;15.27;;;12.70;;
20251;SDS011;10284;58.364;15.550;2022-08-18T04:22:20;14.40;;;12.13;;
20251;SDS011;10284;58.364;15.550;2022-08-18T04:24:46;14.20;;;12.30;;
20251;SDS011;10284;58.364;15.550;2022-08-18T04:27:14;13.40;;;11.93;;
20251;SDS011;10284;58.364;15.550;2022-08-18T04:29:39;15.02;;;13.35;;
20251;SDS011;10284;58.364;15.550;2022-08-18T04:32:05;16.95;;;14.00;;
20251;SDS011;10284;58.364;15.550;2022-08-18T04:34:31;19.67;;;13.10;;
20251;SDS011;10284;58.364;15.550;2022-08-18T04:36:57;18.40;;;13.65;;
20251;SDS011;10284;58.364;15.550;2022-08-18T04:39:22;18.60;;;14.10;;
20251;SDS011;10284;58.364;15.550;2022-08-18T04:41:48;18.13;;;14.68;;
20251;SDS011;10284;58.364;15.550;2022-08-18T04:44:14;18.40;;;14.32;;
20251;SDS011;10284;58.364;15.550;2022-08-18T04:46:45;18.13;;;14.50;;
20251;SDS011;10284;58.364;15.550;2022-08-18T04:49:19;21.17;;;15.02;;
20251;SDS011;10284;58.364;15.550;2022-08-18T04:51:47;19.70;;;16.70;;
20251;SDS011;10284;58.364;15.550;2022-08-18T04:54:35;30.40;;;20.77;;
20251;SDS011;10284;58.364;15.550;2022-08-18T04:57:13;24.77;;;19.60;;
20251;SDS011;10284;58.364;15.550;2022-08-18T04:59:42;23.20;;;18.15;;
20251;SDS011;10284;58.364;15.550;2022-08-18T05:02:09;21.30;;;17.08;;
20251;SDS011;10284;58.364;15.550;2022-08-18T05:04:35;24.40;;;18.35;;
20251;SDS011;10284;58.364;15.550;2022-08-18T05:07:05;25.92;;;19.02;;
20251;SDS011;10284;58.364;15.550;2022-08-18T05:09:32;24.15;;;19.60;;
20251;SDS011;10284;58.364;15.550;2022-08-18T05:12:00;23.17;;;19.88;;
20251;SDS011;10284;58.364;15.550;2022-08-18T05:14:27;20.85;;;16.90;;
20251;SDS011;10284;58.364;15.550;2022-08-18T05:16:53;21.83;;;17.90;;
20251;SDS011;10284;58.364;15.550;2022-08-18T05:19:22;21.23;;;17.92;;
20251;SDS011;10284;58.364;15.550;2022-08-18T05:21:49;19.38;;;17.02;;
20251;SDS011;10284;58.364;15.550;2022-08-18T05:24:15;23.92;;;18.33;;
20251;SDS011;10284;58.364;15.550;2022-08-18T05:26:41;22.15;;;17.95;;
20251;SDS011;10284;58.364;15.550;2022-08-18T05:29:07;26.42;;;21.77;;
20251;SDS011;10284;58.364;15.550;2022-08-18T05:31:33;26.63;;;20.02;;
20251;SDS011;10284;58.364;15.550;2022-08-18T05:33:58;23.75;;;20.35;;
20251;SDS011;10284;58.364;15.550;2022-08-18T05:36:41;23.67;;;18.45;;
20251;SDS011;10284;58.364;15.550;2022-08-18T05:39:27;25.08;;;20.48;;
20251;SDS011;10284;58.364;15.550;2022-08-18T05:42:18;23.48;;;20.48;;
20251;SDS011;10284;58.364;15.550;2022-08-18T05:44:43;30.50;;;24.60;;
20251;SDS011;10284;58.364;15.550;2022-08-18T05:49:49;28.30;;;23.42;;
20251;SDS011;10284;58.364;15.550;2022-08-18T05:52:39;32.83;;;23.77;;
20251;SDS011;10284;58.364;15.550;2022-08-18T05:55:28;29.08;;;22.30;;
20251;SDS011;10284;58.364;15.550;2022-08-18T05:58:41;24.73;;;20.73;;
20251;SDS011;10284;58.364;15.550;2022-08-18T06:01:09;28.67;;;21.85;;
20251;SDS011;10284;58.364;15.550;2022-08-18T06:03:48;30.00;;;23.27;;
20251;SDS011;10284;58.364;15.550;2022-08-18T06:06:17;24.73;;;21.23;;
20251;SDS011;10284;58.364;15.550;2022-08-18T06:09:06;23.80;;;20.67;;
20251;SDS011;10284;58.364;15.550;2022-08-18T06:11:44;22.63;;;20.23;;
20251;SDS011;10284;58.364;15.550;2022-08-18T06:14:09;23.10;;;19.80;;
20251;SDS011;10284;58.364;15.550;2022-08-18T06:24:37;21.08;;;18.05;;
20251;SDS011;10284;58.364;15.550;2022-08-18T06:30:04;19.65;;;17.65;;
20251;SDS011;10284;58.364;15.550;2022-08-18T06:40:47;18.48;;;16.48;;
20251;SDS011;10284;58.364;15.550;2022-08-18T06:43:13;20.13;;;17.35;;
20251;SDS011;10284;58.364;15.550;2022-08-18T06:45:43;20.10;;;16.52;;
20251;SDS011;10284;58.364;15.550;2022-08-18T06:50:48;18.27;;;16.37;;
20251;SDS011;10284;58.364;15.550;2022-08-18T06:53:16;19.50;;;17.50;;
20251;SDS011;10284;58.364;15.550;2022-08-18T06:55:44;19.98;;;17.85;;
20251;SDS011;10284;58.364;15.550;2022-08-18T07:00:38;19.27;;;16.45;;
20251;SDS011;10284;58.364;15.550;2022-08-18T07:05:59;18.60;;;16.60;;
20251;SDS011;10284;58.364;15.550;2022-08-18T07:08:29;21.55;;;16.70;;
20251;SDS011;10284;58.364;15.550;2022-08-18T07:13:39;17.63;;;15.75;;
20251;SDS011;10284;58.364;15.550;2022-08-18T07:16:16;18.13;;;16.23;;
20251;SDS011;10284;58.364;15.550;2022-08-18T07:18:42;17.85;;;15.98;;
20251;SDS011;10284;58.364;15.550;2022-08-18T07:21:08;22.80;;;17.30;;
20251;SDS011;10284;58.364;15.550;2022-08-18T07:23:35;19.52;;;16.90;;
20251;SDS011;10284;58.364;15.550;2022-08-18T07:26:09;20.13;;;16.52;;
20251;SDS011;10284;58.364;15.550;2022-08-18T07:31:07;19.52;;;15.95;;
20251;SDS011;10284;58.364;15.550;2022-08-18T07:33:36;18.48;;;16.50;;
20251;SDS011;10284;58.364;15.550;2022-08-18T07:36:04;19.67;;;16.42;;
20251;SDS011;10284;58.364;15.550;2022-08-18T07:43:56;16.98;;;14.77;;
20251;SDS011;10284;58.364;15.550;2022-08-18T07:46:44;19.38;;;15.15;;
20251;SDS011;10284;58.364;15.550;2022-08-18T07:49:20;16.45;;;14.70;;
20251;SDS011;10284;58.364;15.550;2022-08-18T07:51:55;16.08;;;14.38;;
20251;SDS011;10284;58.364;15.550;2022-08-18T08:00:08;16.00;;;14.32;;
20251;SDS011;10284;58.364;15.550;2022-08-18T08:02:46;16.38;;;13.98;;
20251;SDS011;10284;58.364;15.550;2022-08-18T08:13:21;15.75;;;13.30;;
20251;SDS011;10284;58.364;15.550;2022-08-18T08:21:09;14.55;;;12.43;;
20251;SDS011;10284;58.364;15.550;2022-08-18T08:23:45;13.30;;;11.98;;
20251;SDS011;10284;58.364;15.550;2022-08-18T08:32:07;14.35;;;11.85;;
20251;SDS011;10284;58.364;15.550;2022-08-18T08:37:14;13.55;;;12.15;;
20251;SDS011;10284;58.364;15.550;2022-08-18T08:39:54;13.55;;;12.00;;
20251;SDS011;10284;58.364;15.550;2022-08-18T08:44:51;13.27;;;11.95;;
20251;SDS011;10284;58.364;15.550;2022-08-18T08:47:30;19.85;;;12.07;;
20251;SDS011;10284;58.364;15.550;2022-08-18T08:50:04;12.93;;;11.68;;
20251;SDS011;10284;58.364;15.550;2022-08-18T08:55:40;12.35;;;11.15;;
20251;SDS011;10284;58.364;15.550;2022-08-18T09:00:40;12.80;;;11.43;;
20251;SDS011;10284;58.364;15.550;2022-08-18T09:03:12;12.90;;;11.23;;
20251;SDS011;10284;58.364;15.550;2022-08-18T09:17:59;12.48;;;10.73;;
20251;SDS011;10284;58.364;15.550;2022-08-18T09:23:18;12.13;;;10.35;;
20251;SDS011;10284;58.364;15.550;2022-08-18T09:25:48;11.73;;;10.63;;
20251;SDS011;10284;58.364;15.550;2022-08-18T09:47:09;10.00;;;9.00;;
20251;SDS011;10284;58.364;15.550;2022-08-18T09:49:43;10.38;;;9.27;;
20251;SDS011;10284;58.364;15.550;2022-08-18T09:54:52;10.82;;;9.73;;
20251;SDS011;10284;58.364;15.550;2022-08-18T09:57:22;9.88;;;8.98;;
20251;SDS011;10284;58.364;15.550;2022-08-18T10:28:59;9.57;;;7.78;;
20251;SDS011;10284;58.364;15.550;2022-08-18T10:31:30;10.02;;;7.80;;
20251;SDS011;10284;58.364;15.550;2022-08-18T10:34:14;8.93;;;8.13;;
20251;SDS011;10284;58.364;15.550;2022-08-18T10:39:52;8.32;;;7.50;;
20251;SDS011;10284;58.364;15.550;2022-08-18T10:42:26;8.38;;;7.57;;
20251;SDS011;10284;58.364;15.550;2022-08-18T10:48:25;9.18;;;8.23;;
20251;SDS011;10284;58.364;15.550;2022-08-18T10:50:50;11.25;;;8.07;;
20251;SDS011;10284;58.364;15.550;2022-08-18T10:56:01;8.15;;;7.38;;
20251;SDS011;10284;58.364;15.550;2022-08-18T10:58:38;8.38;;;7.45;;
20251;SDS011;10284;58.364;15.550;2022-08-18T11:04:21;8.52;;;7.72;;
20251;SDS011;10284;58.364;15.550;2022-08-18T11:06:49;8.95;;;7.95;;
20251;SDS011;10284;58.364;15.550;2022-08-18T11:09:21;8.73;;;7.68;;
20251;SDS011;10284;58.364;15.550;2022-08-18T11:11:50;8.70;;;7.82;;
20251;SDS011;10284;58.364;15.550;2022-08-18T11:19:42;9.75;;;7.50;;
20251;SDS011;10284;58.364;15.550;2022-08-18T11:22:25;8.73;;;7.78;;
20251;SDS011;10284;58.364;15.550;2022-08-18T11:24:53;8.25;;;7.40;;
20251;SDS011;10284;58.364;15.550;2022-08-18T11:27:20;8.30;;;7.47;;
20251;SDS011;10284;58.364;15.550;2022-08-18T11:29:47;9.63;;;7.60;;
20251;SDS011;10284;58.364;15.550;2022-08-18T11:32:21;8.20;;;7.40;;
20251;SDS011;10284;58.364;15.550;2022-08-18T11:37:43;11.50;;;7.97;;
20251;SDS011;10284;58.364;15.550;2022-08-18T11:40:22;8.45;;;7.38;;
20251;SDS011;10284;58.364;15.550;2022-08-18T11:43:00;8.07;;;7.28;;
20251;SDS011;10284;58.364;15.550;2022-08-18T11:45:31;8.60;;;6.85;;
20251;SDS011;10284;58.364;15.550;2022-08-18T11:50:58;8.43;;;7.53;;
20251;SDS011;10284;58.364;15.550;2022-08-18T11:56:01;9.45;;;8.55;;
20251;SDS011;10284;58.364;15.550;2022-08-18T11:58:40;9.05;;;8.13;;
20251;SDS011;10284;58.364;15.550;2022-08-18T12:01:47;9.20;;;8.40;;
20251;SDS011;10284;58.364;15.550;2022-08-18T12:06:39;9.07;;;8.27;;
20251;SDS011;10284;58.364;15.550;2022-08-18T12:11:50;9.77;;;8.63;;
20251;SDS011;10284;58.364;15.550;2022-08-18T12:14:19;11.23;;;9.13;;
20251;SDS011;10284;58.364;15.550;2022-08-18T12:16:46;11.13;;;9.30;;
20251;SDS011;10284;58.364;15.550;2022-08-18T12:19:13;10.63;;;9.63;;
20251;SDS011;10284;58.364;15.550;2022-08-18T12:21:39;10.27;;;9.23;;
20251;SDS011;10284;58.364;15.550;2022-08-18T12:24:08;10.30;;;9.05;;
20251;SDS011;10284;58.364;15.550;2022-08-18T12:26:46;9.32;;;8.43;;
20251;SDS011;10284;58.364;15.550;2022-08-18T12:29:12;8.90;;;8.00;;
20251;SDS011;10284;58.364;15.550;2022-08-18T12:31:39;9.52;;;8.63;;
20251;SDS011;10284;58.364;15.550;2022-08-18T12:34:04;11.63;;;10.40;;
20251;SDS011;10284;58.364;15.550;2022-08-18T12:36:30;14.80;;;10.75;;
20251;SDS011;10284;58.364;15.550;2022-08-18T12:38:55;12.63;;;11.10;;
20251;SDS011;10284;58.364;15.550;2022-08-18T12:41:21;12.35;;;10.88;;
20251;SDS011;10284;58.364;15.550;2022-08-18T12:43:47;14.82;;;11.48;;
20251;SDS011;10284;58.364;15.550;2022-08-18T12:46:12;16.92;;;11.77;;
20251;SDS011;10284;58.364;15.550;2022-08-18T12:48:38;14.95;;;11.45;;
20251;SDS011;10284;58.364;15.550;2022-08-18T12:51:04;19.38;;;12.45;;
20251;SDS011;10284;58.364;15.550;2022-08-18T12:53:30;14.45;;;12.57;;
20251;SDS011;10284;58.364;15.550;2022-08-18T12:55:55;13.60;;;12.23;;
20251;SDS011;10284;58.364;15.550;2022-08-18T12:58:21;14.52;;;12.90;;
20251;SDS011;10284;58.364;15.550;2022-08-18T13:00:46;14.45;;;12.95;;
20251;SDS011;10284;58.364;15.550;2022-08-18T13:03:12;13.73;;;12.45;;
20251;SDS011;10284;58.364;15.550;2022-08-18T13:05:38;13.73;;;11.32;;
20251;SDS011;10284;58.364;15.550;2022-08-18T13:08:04;13.55;;;11.68;;
20251;SDS011;10284;58.364;15.550;2022-08-18T13:10:33;12.75;;;10.60;;
20251;SDS011;10284;58.364;15.550;2022-08-18T13:12:58;13.27;;;10.30;;
20251;SDS011;10284;58.364;15.550;2022-08-18T13:15:24;12.02;;;10.02;;
20251;SDS011;10284;58.364;15.550;2022-08-18T13:17:51;11.15;;;10.02;;
20251;SDS011;10284;58.364;15.550;2022-08-18T13:20:16;11.05;;;10.00;;
20251;SDS011;10284;58.364;15.550;2022-08-18T13:22:42;10.50;;;9.50;;
20251;SDS011;10284;58.364;15.550;2022-08-18T13:25:09;9.82;;;8.85;;
20251;SDS011;10284;58.364;15.550;2022-08-18T13:27:37;15.00;;;10.32;;
20251;SDS011;10284;58.364;15.550;2022-08-18T13:30:06;11.75;;;10.60;;
20251;SDS011;10284;58.364;15.550;2022-08-18T13:32:34;11.80;;;10.60;;
20251;SDS011;10284;58.364;15.550;2022-08-18T13:35:00;11.93;;;10.75;;
20251;SDS011;10284;58.364;15.550;2022-08-18T13:37:25;15.02;;;11.75;;
20251;SDS011;10284;58.364;15.550;2022-08-18T13:39:52;12.40;;;11.20;;
20251;SDS011;10284;58.364;15.550;2022-08-18T13:42:18;14.90;;;12.00;;
20251;SDS011;10284;58.364;15.550;2022-08-18T13:44:43;20.08;;;13.13;;
20251;SDS011;10284;58.364;15.550;2022-08-18T13:47:08;25.17;;;14.50;;
20251;SDS011;10284;58.364;15.550;2022-08-18T13:49:34;18.25;;;12.85;;
20251;SDS011;10284;58.364;15.550;2022-08-18T13:51:59;19.15;;;12.55;;
20251;SDS011;10284;58.364;15.550;2022-08-18T13:54:31;13.73;;;10.25;;
20251;SDS011;10284;58.364;15.550;2022-08-18T13:56:58;12.05;;;10.75;;
20251;SDS011;10284;58.364;15.550;2022-08-18T13:59:24;10.80;;;9.27;;
20251;SDS011;10284;58.364;15.550;2022-08-18T14:01:55;14.93;;;9.20;;
20251;SDS011;10284;58.364;15.550;2022-08-18T14:04:22;11.75;;;8.65;;
20251;SDS011;10284;58.364;15.550;2022-08-18T14:06:47;11.18;;;9.32;;
20251;SDS011;10284;58.364;15.550;2022-08-18T14:09:14;11.07;;;9.68;;
20251;SDS011;10284;58.364;15.550;2022-08-18T14:11:40;10.82;;;9.23;;
20251;SDS011;10284;58.364;15.550;2022-08-18T14:14:05;12.88;;;11.35;;
20251;SDS011;10284;58.364;15.550;2022-08-18T14:16:31;12.65;;;10.85;;
20251;SDS011;10284;58.364;15.550;2022-08-18T14:18:57;17.52;;;12.45;;
20251;SDS011;10284;58.364;15.550;2022-08-18T14:21:42;13.70;;;12.18;;
20251;SDS011;10284;58.364;15.550;2022-08-18T14:24:27;14.38;;;12.57;;
20251;SDS011;10284;58.364;15.550;2022-08-18T14:27:12;14.82;;;12.95;;
20251;SDS011;10284;58.364;15.550;2022-08-18T14:29:37;16.15;;;14.45;;
20251;SDS011;10284;58.364;15.550;2022-08-18T14:32:03;16.48;;;13.25;;
20251;SDS011;10284;58.364;15.550;2022-08-18T14:34:30;15.13;;;13.55;;
20251;SDS011;10284;58.364;15.550;2022-08-18T14:36:55;15.20;;;13.38;;
20251;SDS011;10284;58.364;15.550;2022-08-18T14:39:20;14.65;;;13.07;;
20251;SDS011;10284;58.364;15.550;2022-08-18T14:41:46;14.82;;;13.32;;
20251;SDS011;10284;58.364;15.550;2022-08-18T14:44:11;15.00;;;13.43;;
20251;SDS011;10284;58.364;15.550;2022-08-18T14:46:38;14.70;;;13.10;;
20251;SDS011;10284;58.364;15.550;2022-08-18T14:49:03;16.33;;;13.55;;
20251;SDS011;10284;58.364;15.550;2022-08-18T14:51:29;15.95;;;13.05;;
20251;SDS011;10284;58.364;15.550;2022-08-18T14:53:55;16.08;;;14.48;;
20251;SDS011;10284;58.364;15.550;2022-08-18T14:56:20;13.40;;;12.00;;
20251;SDS011;10284;58.364;15.550;2022-08-18T14:58:46;14.23;;;12.82;;
20251;SDS011;10284;58.364;15.550;2022-08-18T15:01:11;15.70;;;13.98;;
20251;SDS011;10284;58.364;15.550;2022-08-18T15:03:37;14.82;;;13.32;;
20251;SDS011;10284;58.364;15.550;2022-08-18T15:06:03;14.63;;;13.13;;
20251;SDS011;10284;58.364;15.550;2022-08-18T15:08:30;14.98;;;13.32;;
20251;SDS011;10284;58.364;15.550;2022-08-18T15:10:56;15.68;;;14.15;;
20251;SDS011;10284;58.364;15.550;2022-08-18T15:13:23;15.68;;;13.82;;
20251;SDS011;10284;58.364;15.550;2022-08-18T15:15:49;15.15;;;13.65;;
20251;SDS011;10284;58.364;15.550;2022-08-18T15:18:15;16.85;;;14.48;;
20251;SDS011;10284;58.364;15.550;2022-08-18T15:20:41;19.02;;;13.55;;
20251;SDS011;10284;58.364;15.550;2022-08-18T15:23:25;14.05;;;12.52;;
20251;SDS011;10284;58.364;15.550;2022-08-18T15:26:10;12.82;;;11.63;;
20251;SDS011;10284;58.364;15.550;2022-08-18T15:28:35;12.57;;;11.35;;
20251;SDS011;10284;58.364;15.550;2022-08-18T15:31:02;13.75;;;12.35;;
20251;SDS011;10284;58.364;15.550;2022-08-18T15:33:28;13.20;;;11.93;;
20251;SDS011;10284;58.364;15.550;2022-08-18T15:35:54;14.52;;;12.05;;
20251;SDS011;10284;58.364;15.550;2022-08-18T15:38:21;12.73;;;11.40;;
20251;SDS011;10284;58.364;15.550;2022-08-18T15:40:52;13.93;;;12.32;;
20251;SDS011;10284;58.364;15.550;2022-08-18T15:43:23;14.43;;;11.82;;
20251;SDS011;10284;58.364;15.550;2022-08-18T15:45:49;13.90;;;12.52;;
20251;SDS011;10284;58.364;15.550;2022-08-18T15:48:16;13.25;;;11.85;;
20251;SDS011;10284;58.364;15.550;2022-08-18T15:50:43;14.18;;;12.60;;
20251;SDS011;10284;58.364;15.550;2022-08-18T15:53:11;15.00;;;12.43;;
20251;SDS011;10284;58.364;15.550;2022-08-18T15:55:37;13.50;;;12.15;;
20251;SDS011;10284;58.364;15.550;2022-08-18T15:58:03;13.38;;;11.63;;
20251;SDS011;10284;58.364;15.550;2022-08-18T16:00:29;13.40;;;12.02;;
20251;SDS011;10284;58.364;15.550;2022-08-18T16:02:57;12.23;;;11.02;;
20251;SDS011;10284;58.364;15.550;2022-08-18T16:05:27;12.38;;;11.07;;
20251;SDS011;10284;58.364;15.550;2022-08-18T16:07:54;13.88;;;11.05;;
20251;SDS011;10284;58.364;15.550;2022-08-18T16:10:21;12.70;;;10.63;;
20251;SDS011;10284;58.364;15.550;2022-08-18T16:12:48;12.35;;;11.18;;
20251;SDS011;10284;58.364;15.550;2022-08-18T16:15:18;13.43;;;11.27;;
20251;SDS011;10284;58.364;15.550;2022-08-18T16:17:45;11.43;;;10.32;;
20251;SDS011;10284;58.364;15.550;2022-08-18T16:20:11;10.90;;;9.82;;
20251;SDS011;10284;58.364;15.550;2022-08-18T16:22:37;10.63;;;9.63;;
20251;SDS011;10284;58.364;15.550;2022-08-18T16:25:06;12.10;;;10.07;;
20251;SDS011;10284;58.364;15.550;2022-08-18T16:27:35;11.27;;;10.18;;
20251;SDS011;10284;58.364;15.550;2022-08-18T16:30:05;12.68;;;10.05;;
20251;SDS011;10284;58.364;15.550;2022-08-18T16:32:32;10.98;;;9.98;;
20251;SDS011;10284;58.364;15.550;2022-08-18T16:34:57;10.80;;;9.80;;
20251;SDS011;10284;58.364;15.550;2022-08-18T16:37:23;11.35;;;10.20;;
20251;SDS011;10284;58.364;15.550;2022-08-18T16:39:50;12.63;;;10.77;;
20251;SDS011;10284;58.364;15.550;2022-08-18T16:42:16;10.95;;;9.88;;
20251;SDS011;10284;58.364;15.550;2022-08-18T16:44:42;11.57;;;9.75;;
20251;SDS011;10284;58.364;15.550;2022-08-18T16:47:08;11.27;;;10.07;;
20251;SDS011;10284;58.364;15.550;2022-08-18T16:49:33;10.02;;;9.02;;
20251;SDS011;10284;58.364;15.550;2022-08-18T16:51:59;11.85;;;9.07;;
20251;SDS011;10284;58.364;15.550;2022-08-18T16:54:28;11.75;;;9.77;;
20251;SDS011;10284;58.364;15.550;2022-08-18T16:56:54;11.10;;;9.95;;
20251;SDS011;10284;58.364;15.550;2022-08-18T16:59:19;11.55;;;10.35;;
20251;SDS011;10284;58.364;15.550;2022-08-18T17:02:04;10.95;;;9.52;;
20251;SDS011;10284;58.364;15.550;2022-08-18T17:04:58;10.90;;;9.75;;
20251;SDS011;10284;58.364;15.550;2022-08-18T17:07:27;10.93;;;9.27;;
20251;SDS011;10284;58.364;15.550;2022-08-18T17:09:53;10.52;;;9.50;;
20251;SDS011;10284;58.364;15.550;2022-08-18T17:12:19;9.93;;;8.90;;
20251;SDS011;10284;58.364;15.550;2022-08-18T17:14:44;10.90;;;9.05;;
20251;SDS011;10284;58.364;15.550;2022-08-18T17:17:10;10.73;;;9.63;;
20251;SDS011;10284;58.364;15.550;2022-08-18T17:19:36;11.52;;;9.43;;
20251;SDS011;10284;58.364;15.550;2022-08-18T17:22:02;10.10;;;9.10;;